Terminal Aerodrome Forecast
Issued by NWS North Platte, NE

Home | Current Version | Previous Version | Text Only | Print | Product List | Glossary Off
Versions: 1 2 3 4 5 6 7 8 9 10 11 12 13 14 15 16 17 18 19 20 21 22 23

000
FTUS43 KLBF 281120
TAFVTN
TAF
KVTN 281120Z 2812/2912 33012KT 2SM BR OVC003
     FM281500 32010KT 5SM BR OVC007
     FM281700 34009KT P6SM OVC015
     FM281900 36009KT P6SM OVC020
     FM290300 02005KT P6SM OVC015=

USA.gov is the U.S. government's official web portal to all federal, state and local government web resources and services.